sensor_id;sensor_type;location;lat;lon;timestamp;temperature;humidity
26641;DHT22;14269;47.358;0.724;2024-02-14T00:01:46;16.0;62.0
26641;DHT22;14269;47.358;0.724;2024-02-14T00:04:19;17.0;61.0
26641;DHT22;14269;47.358;0.724;2024-02-14T00:06:59;17.0;61.0
26641;DHT22;14269;47.358;0.724;2024-02-14T00:09:31;17.0;61.0
26641;DHT22;14269;47.358;0.724;2024-02-14T00:12:03;16.0;62.0
26641;DHT22;14269;47.358;0.724;2024-02-14T00:14:34;17.0;61.0
26641;DHT22;14269;47.358;0.724;2024-02-14T00:17:07;17.0;61.0
26641;DHT22;14269;47.358;0.724;2024-02-14T00:19:48;16.0;61.0
26641;DHT22;14269;47.358;0.724;2024-02-14T00:22:19;16.0;62.0
26641;DHT22;14269;47.358;0.724;2024-02-14T00:24:51;17.0;61.0
26641;DHT22;14269;47.358;0.724;2024-02-14T00:27:24;17.0;61.0
26641;DHT22;14269;47.358;0.724;2024-02-14T00:30:05;17.0;60.0
26641;DHT22;14269;47.358;0.724;2024-02-14T00:32:46;17.0;61.0
26641;DHT22;14269;47.358;0.724;2024-02-14T00:35:18;17.0;60.0
26641;DHT22;14269;47.358;0.724;2024-02-14T00:37:49;17.0;60.0
26641;DHT22;14269;47.358;0.724;2024-02-14T00:40:21;17.0;60.0
26641;DHT22;14269;47.358;0.724;2024-02-14T00:42:53;17.0;60.0
26641;DHT22;14269;47.358;0.724;2024-02-14T00:45:24;17.0;61.0
26641;DHT22;14269;47.358;0.724;2024-02-14T00:47:56;17.0;60.0
26641;DHT22;14269;47.358;0.724;2024-02-14T00:50:27;17.0;60.0
26641;DHT22;14269;47.358;0.724;2024-02-14T00:52:59;17.0;61.0
26641;DHT22;14269;47.358;0.724;2024-02-14T00:55:32;17.0;60.0
26641;DHT22;14269;47.358;0.724;2024-02-14T00:58:13;17.0;61.0
26641;DHT22;14269;47.358;0.724;2024-02-14T01:00:44;17.0;60.0
26641;DHT22;14269;47.358;0.724;2024-02-14T01:03:17;17.0;61.0
26641;DHT22;14269;47.358;0.724;2024-02-14T01:05:47;17.0;61.0
26641;DHT22;14269;47.358;0.724;2024-02-14T01:08:19;17.0;61.0
26641;DHT22;14269;47.358;0.724;2024-02-14T01:10:51;17.0;60.0
26641;DHT22;14269;47.358;0.724;2024-02-14T01:13:22;17.0;60.0
26641;DHT22;14269;47.358;0.724;2024-02-14T01:15:54;17.0;60.0
26641;DHT22;14269;47.358;0.724;2024-02-14T01:18:26;17.0;60.0
26641;DHT22;14269;47.358;0.724;2024-02-14T01:20:58;17.0;60.0
26641;DHT22;14269;47.358;0.724;2024-02-14T01:23:39;17.0;60.0
26641;DHT22;14269;47.358;0.724;2024-02-14T01:26:11;17.0;61.0
26641;DHT22;14269;47.358;0.724;2024-02-14T01:28:44;17.0;61.0
26641;DHT22;14269;47.358;0.724;2024-02-14T01:31:24;17.0;60.0
26641;DHT22;14269;47.358;0.724;2024-02-14T01:33:56;17.0;60.0
26641;DHT22;14269;47.358;0.724;2024-02-14T01:36:28;18.0;60.0
26641;DHT22;14269;47.358;0.724;2024-02-14T01:38:59;18.0;60.0
26641;DHT22;14269;47.358;0.724;2024-02-14T01:41:31;18.0;60.0
26641;DHT22;14269;47.358;0.724;2024-02-14T01:44:03;17.0;60.0
26641;DHT22;14269;47.358;0.724;2024-02-14T01:46:34;18.0;60.0
26641;DHT22;14269;47.358;0.724;2024-02-14T01:49:06;17.0;61.0
26641;DHT22;14269;47.358;0.724;2024-02-14T01:51:39;17.0;61.0
26641;DHT22;14269;47.358;0.724;2024-02-14T01:54:19;17.0;61.0
26641;DHT22;14269;47.358;0.724;2024-02-14T01:56:51;17.0;61.0
26641;DHT22;14269;47.358;0.724;2024-02-14T01:59:23;18.0;60.0
26641;DHT22;14269;47.358;0.724;2024-02-14T02:02:07;17.0;60.0
26641;DHT22;14269;47.358;0.724;2024-02-14T02:04:46;17.0;61.0
26641;DHT22;14269;47.358;0.724;2024-02-14T02:07:19;17.0;61.0
26641;DHT22;14269;47.358;0.724;2024-02-14T02:09:59;18.0;60.0
26641;DHT22;14269;47.358;0.724;2024-02-14T02:12:32;18.0;60.0
26641;DHT22;14269;47.358;0.724;2024-02-14T02:15:15;17.0;60.0
26641;DHT22;14269;47.358;0.724;2024-02-14T02:17:55;18.0;60.0
26641;DHT22;14269;47.358;0.724;2024-02-14T02:20:28;17.0;60.0
26641;DHT22;14269;47.358;0.724;2024-02-14T02:23:10;17.0;59.0
26641;DHT22;14269;47.358;0.724;2024-02-14T02:25:50;17.0;60.0
26641;DHT22;14269;47.358;0.724;2024-02-14T02:28:21;17.0;61.0
26641;DHT22;14269;47.358;0.724;2024-02-14T02:30:53;17.0;62.0
26641;DHT22;14269;47.358;0.724;2024-02-14T02:33:35;17.0;60.0
26641;DHT22;14269;47.358;0.724;2024-02-14T02:36:07;18.0;59.0
26641;DHT22;14269;47.358;0.724;2024-02-14T02:38:48;17.0;60.0
26641;DHT22;14269;47.358;0.724;2024-02-14T02:41:20;17.0;59.0
26641;DHT22;14269;47.358;0.724;2024-02-14T02:43:54;17.0;60.0
26641;DHT22;14269;47.358;0.724;2024-02-14T02:46:33;17.0;59.0
26641;DHT22;14269;47.358;0.724;2024-02-14T02:49:05;17.0;59.0
26641;DHT22;14269;47.358;0.724;2024-02-14T02:51:36;17.0;60.0
26641;DHT22;14269;47.358;0.724;2024-02-14T02:54:08;17.0;60.0
26641;DHT22;14269;47.358;0.724;2024-02-14T02:56:50;17.0;60.0
26641;DHT22;14269;47.358;0.724;2024-02-14T02:59:22;17.0;59.0
26641;DHT22;14269;47.358;0.724;2024-02-14T03:01:53;17.0;58.0
26641;DHT22;14269;47.358;0.724;2024-02-14T03:04:25;17.0;58.0
26641;DHT22;14269;47.358;0.724;2024-02-14T03:06:57;17.0;58.0
26641;DHT22;14269;47.358;0.724;2024-02-14T03:09:28;18.0;57.0
26641;DHT22;14269;47.358;0.724;2024-02-14T03:12:00;17.0;58.0
26641;DHT22;14269;47.358;0.724;2024-02-14T03:14:32;17.0;58.0
26641;DHT22;14269;47.358;0.724;2024-02-14T03:17:03;17.0;58.0
26641;DHT22;14269;47.358;0.724;2024-02-14T03:19:39;17.0;58.0
26641;DHT22;14269;47.358;0.724;2024-02-14T03:22:19;17.0;58.0
26641;DHT22;14269;47.358;0.724;2024-02-14T03:24:58;17.0;58.0
26641;DHT22;14269;47.358;0.724;2024-02-14T03:27:31;17.0;57.0
26641;DHT22;14269;47.358;0.724;2024-02-14T03:30:13;17.0;58.0
26641;DHT22;14269;47.358;0.724;2024-02-14T03:32:56;18.0;57.0
26641;DHT22;14269;47.358;0.724;2024-02-14T03:35:35;17.0;57.0
26641;DHT22;14269;47.358;0.724;2024-02-14T03:38:08;17.0;57.0
26641;DHT22;14269;47.358;0.724;2024-02-14T03:40:48;17.0;57.0
26641;DHT22;14269;47.358;0.724;2024-02-14T03:43:22;17.0;57.0
26641;DHT22;14269;47.358;0.724;2024-02-14T03:46:02;17.0;57.0
26641;DHT22;14269;47.358;0.724;2024-02-14T03:48:34;17.0;57.0
26641;DHT22;14269;47.358;0.724;2024-02-14T03:51:05;17.0;57.0
26641;DHT22;14269;47.358;0.724;2024-02-14T03:53:37;17.0;57.0
26641;DHT22;14269;47.358;0.724;2024-02-14T03:56:08;17.0;57.0
26641;DHT22;14269;47.358;0.724;2024-02-14T03:58:42;17.0;58.0
26641;DHT22;14269;47.358;0.724;2024-02-14T04:01:22;17.0;58.0
26641;DHT22;14269;47.358;0.724;2024-02-14T04:03:53;17.0;58.0
26641;DHT22;14269;47.358;0.724;2024-02-14T04:06:27;17.0;58.0
26641;DHT22;14269;47.358;0.724;2024-02-14T04:09:07;17.0;58.0
26641;DHT22;14269;47.358;0.724;2024-02-14T04:11:38;17.0;57.0
26641;DHT22;14269;47.358;0.724;2024-02-14T04:14:11;18.0;57.0
26641;DHT22;14269;47.358;0.724;2024-02-14T04:16:42;17.0;57.0
26641;DHT22;14269;47.358;0.724;2024-02-14T04:19:13;17.0;57.0
26641;DHT22;14269;47.358;0.724;2024-02-14T04:21:55;17.0;58.0
26641;DHT22;14269;47.358;0.724;2024-02-14T04:24:27;17.0;58.0
26641;DHT22;14269;47.358;0.724;2024-02-14T04:26:59;17.0;58.0
26641;DHT22;14269;47.358;0.724;2024-02-14T04:29:40;17.0;60.0
26641;DHT22;14269;47.358;0.724;2024-02-14T04:32:12;17.0;59.0
26641;DHT22;14269;47.358;0.724;2024-02-14T04:34:44;18.0;57.0
26641;DHT22;14269;47.358;0.724;2024-02-14T04:37:18;18.0;57.0
26641;DHT22;14269;47.358;0.724;2024-02-14T04:39:57;17.0;58.0
26641;DHT22;14269;47.358;0.724;2024-02-14T04:42:29;18.0;57.0
26641;DHT22;14269;47.358;0.724;2024-02-14T04:45:01;18.0;57.0
26641;DHT22;14269;47.358;0.724;2024-02-14T04:47:32;17.0;58.0
26641;DHT22;14269;47.358;0.724;2024-02-14T04:50:04;17.0;58.0
26641;DHT22;14269;47.358;0.724;2024-02-14T04:52:35;18.0;58.0
26641;DHT22;14269;47.358;0.724;2024-02-14T04:55:08;17.0;59.0
26641;DHT22;14269;47.358;0.724;2024-02-14T04:57:49;17.0;59.0
26641;DHT22;14269;47.358;0.724;2024-02-14T05:00:20;17.0;59.0
26641;DHT22;14269;47.358;0.724;2024-02-14T05:02:52;17.0;59.0
26641;DHT22;14269;47.358;0.724;2024-02-14T05:05:23;17.0;59.0
26641;DHT22;14269;47.358;0.724;2024-02-14T05:07:55;17.0;60.0
26641;DHT22;14269;47.358;0.724;2024-02-14T05:10:27;17.0;58.0
26641;DHT22;14269;47.358;0.724;2024-02-14T05:12:59;18.0;58.0
26641;DHT22;14269;47.358;0.724;2024-02-14T05:15:30;17.0;58.0
26641;DHT22;14269;47.358;0.724;2024-02-14T05:18:03;17.0;58.0
26641;DHT22;14269;47.358;0.724;2024-02-14T05:20:44;17.0;58.0
26641;DHT22;14269;47.358;0.724;2024-02-14T05:23:25;17.0;58.0
26641;DHT22;14269;47.358;0.724;2024-02-14T05:25:57;17.0;58.0
26641;DHT22;14269;47.358;0.724;2024-02-14T05:28:29;17.0;59.0
26641;DHT22;14269;47.358;0.724;2024-02-14T05:31:01;17.0;58.0
26641;DHT22;14269;47.358;0.724;2024-02-14T05:33:43;17.0;59.0
26641;DHT22;14269;47.358;0.724;2024-02-14T05:36:14;17.0;58.0
26641;DHT22;14269;47.358;0.724;2024-02-14T05:38:45;17.0;58.0
26641;DHT22;14269;47.358;0.724;2024-02-14T05:41:18;17.0;58.0
26641;DHT22;14269;47.358;0.724;2024-02-14T05:43:48;17.0;58.0
26641;DHT22;14269;47.358;0.724;2024-02-14T05:46:21;17.0;59.0
26641;DHT22;14269;47.358;0.724;2024-02-14T05:49:02;17.0;59.0
26641;DHT22;14269;47.358;0.724;2024-02-14T05:51:34;17.0;59.0
26641;DHT22;14269;47.358;0.724;2024-02-14T05:54:05;17.0;59.0
26641;DHT22;14269;47.358;0.724;2024-02-14T05:56:37;17.0;59.0
26641;DHT22;14269;47.358;0.724;2024-02-14T05:59:10;17.0;59.0
26641;DHT22;14269;47.358;0.724;2024-02-14T06:01:50;18.0;58.0
26641;DHT22;14269;47.358;0.724;2024-02-14T06:04:22;18.0;58.0
26641;DHT22;14269;47.358;0.724;2024-02-14T06:06:53;17.0;59.0
26641;DHT22;14269;47.358;0.724;2024-02-14T06:09:25;17.0;61.0
26641;DHT22;14269;47.358;0.724;2024-02-14T06:11:57;17.0;61.0
26641;DHT22;14269;47.358;0.724;2024-02-14T06:14:30;17.0;61.0
26641;DHT22;14269;47.358;0.724;2024-02-14T06:17:10;17.0;60.0
26641;DHT22;14269;47.358;0.724;2024-02-14T06:19:42;17.0;60.0
26641;DHT22;14269;47.358;0.724;2024-02-14T06:22:13;17.0;62.0
26641;DHT22;14269;47.358;0.724;2024-02-14T06:24:45;17.0;61.0
26641;DHT22;14269;47.358;0.724;2024-02-14T06:27:27;17.0;61.0
26641;DHT22;14269;47.358;0.724;2024-02-14T06:29:59;17.0;62.0
26641;DHT22;14269;47.358;0.724;2024-02-14T06:32:30;17.0;62.0
26641;DHT22;14269;47.358;0.724;2024-02-14T06:35:02;17.0;61.0
26641;DHT22;14269;47.358;0.724;2024-02-14T06:37:33;17.0;62.0
26641;DHT22;14269;47.358;0.724;2024-02-14T06:40:08;17.0;61.0
26641;DHT22;14269;47.358;0.724;2024-02-14T06:42:49;17.0;62.0
26641;DHT22;14269;47.358;0.724;2024-02-14T06:45:29;17.0;61.0
26641;DHT22;14269;47.358;0.724;2024-02-14T06:48:00;17.0;61.0
26641;DHT22;14269;47.358;0.724;2024-02-14T06:50:32;17.0;62.0
26641;DHT22;14269;47.358;0.724;2024-02-14T06:53:06;17.0;61.0
26641;DHT22;14269;47.358;0.724;2024-02-14T06:55:45;17.0;61.0
26641;DHT22;14269;47.358;0.724;2024-02-14T06:58:17;17.0;62.0
26641;DHT22;14269;47.358;0.724;2024-02-14T07:00:49;17.0;62.0
26641;DHT22;14269;47.358;0.724;2024-02-14T07:03:20;17.0;61.0
26641;DHT22;14269;47.358;0.724;2024-02-14T07:05:52;17.0;61.0
26641;DHT22;14269;47.358;0.724;2024-02-14T07:08:26;17.0;60.0
26641;DHT22;14269;47.358;0.724;2024-02-14T07:11:05;17.0;61.0
26641;DHT22;14269;47.358;0.724;2024-02-14T07:13:37;17.0;61.0
26641;DHT22;14269;47.358;0.724;2024-02-14T07:16:09;17.0;62.0
26641;DHT22;14269;47.358;0.724;2024-02-14T07:18:41;17.0;62.0
26641;DHT22;14269;47.358;0.724;2024-02-14T07:21:12;17.0;61.0
26641;DHT22;14269;47.358;0.724;2024-02-14T07:23:44;16.0;63.0
26641;DHT22;14269;47.358;0.724;2024-02-14T07:26:15;17.0;61.0
26641;DHT22;14269;47.358;0.724;2024-02-14T07:28:47;17.0;60.0
26641;DHT22;14269;47.358;0.724;2024-02-14T07:31:18;17.0;61.0
26641;DHT22;14269;47.358;0.724;2024-02-14T07:33:53;17.0;60.0
26641;DHT22;14269;47.358;0.724;2024-02-14T07:36:32;17.0;60.0
26641;DHT22;14269;47.358;0.724;2024-02-14T07:39:04;17.0;60.0
26641;DHT22;14269;47.358;0.724;2024-02-14T07:41:35;17.0;61.0
26641;DHT22;14269;47.358;0.724;2024-02-14T07:44:07;17.0;62.0
26641;DHT22;14269;47.358;0.724;2024-02-14T07:46:38;17.0;60.0
26641;DHT22;14269;47.358;0.724;2024-02-14T07:49:10;18.0;59.0
26641;DHT22;14269;47.358;0.724;2024-02-14T07:51:42;18.0;59.0
26641;DHT22;14269;47.358;0.724;2024-02-14T07:54:14;18.0;59.0
26641;DHT22;14269;47.358;0.724;2024-02-14T07:56:45;17.0;59.0
26641;DHT22;14269;47.358;0.724;2024-02-14T07:59:17;18.0;59.0
26641;DHT22;14269;47.358;0.724;2024-02-14T08:01:48;18.0;59.0
26641;DHT22;14269;47.358;0.724;2024-02-14T08:04:20;17.0;60.0
26641;DHT22;14269;47.358;0.724;2024-02-14T08:06:52;17.0;59.0
26641;DHT22;14269;47.358;0.724;2024-02-14T08:09:23;17.0;60.0
26641;DHT22;14269;47.358;0.724;2024-02-14T08:11:55;17.0;60.0
26641;DHT22;14269;47.358;0.724;2024-02-14T08:14:26;17.0;60.0
26641;DHT22;14269;47.358;0.724;2024-02-14T08:16:58;17.0;60.0
26641;DHT22;14269;47.358;0.724;2024-02-14T08:19:30;17.0;60.0
26641;DHT22;14269;47.358;0.724;2024-02-14T08:22:02;17.0;59.0
26641;DHT22;14269;47.358;0.724;2024-02-14T08:24:43;17.0;60.0
26641;DHT22;14269;47.358;0.724;2024-02-14T08:27:15;17.0;61.0
26641;DHT22;14269;47.358;0.724;2024-02-14T08:29:46;17.0;59.0
26641;DHT22;14269;47.358;0.724;2024-02-14T08:32:18;17.0;59.0
26641;DHT22;14269;47.358;0.724;2024-02-14T08:34:50;17.0;61.0
26641;DHT22;14269;47.358;0.724;2024-02-14T08:37:22;17.0;59.0
26641;DHT22;14269;47.358;0.724;2024-02-14T08:40:06;17.0;60.0
26641;DHT22;14269;47.358;0.724;2024-02-14T08:42:45;17.0;60.0
26641;DHT22;14269;47.358;0.724;2024-02-14T08:45:17;17.0;60.0
26641;DHT22;14269;47.358;0.724;2024-02-14T08:47:48;17.0;61.0
26641;DHT22;14269;47.358;0.724;2024-02-14T08:50:20;17.0;60.0
26641;DHT22;14269;47.358;0.724;2024-02-14T08:52:51;17.0;59.0
26641;DHT22;14269;47.358;0.724;2024-02-14T08:55:23;17.0;59.0
26641;DHT22;14269;47.358;0.724;2024-02-14T08:57:55;17.0;60.0
26641;DHT22;14269;47.358;0.724;2024-02-14T09:00:37;17.0;59.0
26641;DHT22;14269;47.358;0.724;2024-02-14T09:03:19;17.0;60.0
26641;DHT22;14269;47.358;0.724;2024-02-14T09:05:51;17.0;60.0
26641;DHT22;14269;47.358;0.724;2024-02-14T09:08:32;17.0;60.0
26641;DHT22;14269;47.358;0.724;2024-02-14T09:11:04;17.0;59.0
26641;DHT22;14269;47.358;0.724;2024-02-14T09:13:35;17.0;61.0
26641;DHT22;14269;47.358;0.724;2024-02-14T09:16:08;17.0;59.0
26641;DHT22;14269;47.358;0.724;2024-02-14T09:18:50;18.0;59.0
26641;DHT22;14269;47.358;0.724;2024-02-14T09:21:30;18.0;59.0
26641;DHT22;14269;47.358;0.724;2024-02-14T09:24:12;18.0;58.0
26641;DHT22;14269;47.358;0.724;2024-02-14T09:26:44;18.0;57.0
26641;DHT22;14269;47.358;0.724;2024-02-14T09:29:15;18.0;57.0
26641;DHT22;14269;47.358;0.724;2024-02-14T09:31:49;18.0;58.0
26641;DHT22;14269;47.358;0.724;2024-02-14T09:34:29;18.0;59.0
26641;DHT22;14269;47.358;0.724;2024-02-14T09:37:00;18.0;58.0
26641;DHT22;14269;47.358;0.724;2024-02-14T09:39:33;18.0;58.0
26641;DHT22;14269;47.358;0.724;2024-02-14T09:42:16;18.0;57.0
26641;DHT22;14269;47.358;0.724;2024-02-14T09:45:16;18.0;57.0
26641;DHT22;14269;47.358;0.724;2024-02-14T09:47:58;19.0;56.0
26641;DHT22;14269;47.358;0.724;2024-02-14T09:50:30;19.0;54.0
26641;DHT22;14269;47.358;0.724;2024-02-14T09:53:12;21.0;50.0
26641;DHT22;14269;47.358;0.724;2024-02-14T09:55:54;21.0;49.0
26641;DHT22;14269;47.358;0.724;2024-02-14T09:58:35;21.0;50.0
26641;DHT22;14269;47.358;0.724;2024-02-14T10:01:21;21.0;51.0
26641;DHT22;14269;47.358;0.724;2024-02-14T10:03:58;21.0;50.0
26641;DHT22;14269;47.358;0.724;2024-02-14T10:06:31;22.0;49.0
26641;DHT22;14269;47.358;0.724;2024-02-14T10:09:11;21.0;50.0
26641;DHT22;14269;47.358;0.724;2024-02-14T10:11:44;21.0;48.0
26641;DHT22;14269;47.358;0.724;2024-02-14T10:14:25;21.0;49.0
26641;DHT22;14269;47.358;0.724;2024-02-14T10:16:56;23.0;46.0
26641;DHT22;14269;47.358;0.724;2024-02-14T10:19:28;23.0;46.0
26641;DHT22;14269;47.358;0.724;2024-02-14T10:22:02;22.0;48.0
26641;DHT22;14269;47.358;0.724;2024-02-14T10:24:41;22.0;47.0
26641;DHT22;14269;47.358;0.724;2024-02-14T10:27:15;23.0;46.0
26641;DHT22;14269;47.358;0.724;2024-02-14T10:29:56;24.0;43.0
26641;DHT22;14269;47.358;0.724;2024-02-14T10:32:37;24.0;43.0
26641;DHT22;14269;47.358;0.724;2024-02-14T10:35:08;24.0;44.0
26641;DHT22;14269;47.358;0.724;2024-02-14T10:37:50;25.0;41.0
26641;DHT22;14269;47.358;0.724;2024-02-14T10:40:22;24.0;41.0
26641;DHT22;14269;47.358;0.724;2024-02-14T10:42:54;24.0;42.0
26641;DHT22;14269;47.358;0.724;2024-02-14T10:45:26;24.0;42.0
26641;DHT22;14269;47.358;0.724;2024-02-14T10:48:11;24.0;42.0
26641;DHT22;14269;47.358;0.724;2024-02-14T10:50:49;24.0;42.0
26641;DHT22;14269;47.358;0.724;2024-02-14T10:53:33;24.0;41.0
26641;DHT22;14269;47.358;0.724;2024-02-14T10:56:17;24.0;43.0
26641;DHT22;14269;47.358;0.724;2024-02-14T10:58:57;25.0;41.0
26641;DHT22;14269;47.358;0.724;2024-02-14T11:01:36;23.0;43.0
26641;DHT22;14269;47.358;0.724;2024-02-14T11:04:18;24.0;43.0
26641;DHT22;14269;47.358;0.724;2024-02-14T11:06:53;24.0;43.0
26641;DHT22;14269;47.358;0.724;2024-02-14T11:09:32;24.0;42.0
26641;DHT22;14269;47.358;0.724;2024-02-14T11:12:12;23.0;43.0
26641;DHT22;14269;47.358;0.724;2024-02-14T11:14:45;24.0;43.0
26641;DHT22;14269;47.358;0.724;2024-02-14T11:17:27;24.0;41.0
26641;DHT22;14269;47.358;0.724;2024-02-14T11:20:17;24.0;42.0
26641;DHT22;14269;47.358;0.724;2024-02-14T11:22:54;24.0;41.0
26641;DHT22;14269;47.358;0.724;2024-02-14T11:25:32;23.0;43.0
26641;DHT22;14269;47.358;0.724;2024-02-14T11:28:14;23.0;44.0
26641;DHT22;14269;47.358;0.724;2024-02-14T11:31:01;23.0;44.0
26641;DHT22;14269;47.358;0.724;2024-02-14T11:33:37;24.0;42.0
26641;DHT22;14269;47.358;0.724;2024-02-14T11:36:10;24.0;41.0
26641;DHT22;14269;47.358;0.724;2024-02-14T11:38:50;25.0;40.0
26641;DHT22;14269;47.358;0.724;2024-02-14T11:41:21;25.0;39.0
26641;DHT22;14269;47.358;0.724;2024-02-14T11:43:53;25.0;40.0
26641;DHT22;14269;47.358;0.724;2024-02-14T11:46:29;26.0;38.0
26641;DHT22;14269;47.358;0.724;2024-02-14T11:49:06;26.0;38.0
26641;DHT22;14269;47.358;0.724;2024-02-14T11:51:38;26.0;37.0
26641;DHT22;14269;47.358;0.724;2024-02-14T11:54:10;26.0;37.0
26641;DHT22;14269;47.358;0.724;2024-02-14T11:56:41;26.0;38.0
26641;DHT22;14269;47.358;0.724;2024-02-14T11:59:15;25.0;39.0
26641;DHT22;14269;47.358;0.724;2024-02-14T12:01:58;25.0;39.0
26641;DHT22;14269;47.358;0.724;2024-02-14T12:04:36;25.0;38.0
26641;DHT22;14269;47.358;0.724;2024-02-14T12:07:08;26.0;37.0
26641;DHT22;14269;47.358;0.724;2024-02-14T12:09:40;25.0;38.0
26641;DHT22;14269;47.358;0.724;2024-02-14T12:12:11;24.0;42.0
26641;DHT22;14269;47.358;0.724;2024-02-14T12:14:43;24.0;41.0
26641;DHT22;14269;47.358;0.724;2024-02-14T12:17:15;25.0;40.0
26641;DHT22;14269;47.358;0.724;2024-02-14T12:20:05;25.0;39.0
26641;DHT22;14269;47.358;0.724;2024-02-14T12:22:38;25.0;38.0
26641;DHT22;14269;47.358;0.724;2024-02-14T12:25:11;26.0;36.0
26641;DHT22;14269;47.358;0.724;2024-02-14T12:27:52;26.0;36.0
26641;DHT22;14269;47.358;0.724;2024-02-14T12:30:43;25.0;37.0
26641;DHT22;14269;47.358;0.724;2024-02-14T12:33:26;25.0;39.0
26641;DHT22;14269;47.358;0.724;2024-02-14T12:36:07;25.0;38.0
26641;DHT22;14269;47.358;0.724;2024-02-14T12:38:38;26.0;37.0
26641;DHT22;14269;47.358;0.724;2024-02-14T12:41:10;26.0;36.0
26641;DHT22;14269;47.358;0.724;2024-02-14T12:43:42;26.0;37.0
26641;DHT22;14269;47.358;0.724;2024-02-14T12:46:13;24.0;39.0
26641;DHT22;14269;47.358;0.724;2024-02-14T12:48:45;25.0;39.0
26641;DHT22;14269;47.358;0.724;2024-02-14T12:51:17;25.0;38.0
26641;DHT22;14269;47.358;0.724;2024-02-14T12:53:48;24.0;40.0
26641;DHT22;14269;47.358;0.724;2024-02-14T12:56:20;24.0;40.0
26641;DHT22;14269;47.358;0.724;2024-02-14T12:58:52;24.0;39.0
26641;DHT22;14269;47.358;0.724;2024-02-14T13:01:23;24.0;39.0
26641;DHT22;14269;47.358;0.724;2024-02-14T13:03:55;24.0;40.0
26641;DHT22;14269;47.358;0.724;2024-02-14T13:06:27;24.0;40.0
26641;DHT22;14269;47.358;0.724;2024-02-14T13:08:58;24.0;40.0
26641;DHT22;14269;47.358;0.724;2024-02-14T13:11:41;25.0;39.0
26641;DHT22;14269;47.358;0.724;2024-02-14T13:14:22;25.0;38.0
26641;DHT22;14269;47.358;0.724;2024-02-14T13:16:53;23.0;41.0
26641;DHT22;14269;47.358;0.724;2024-02-14T13:19:25;24.0;40.0
26641;DHT22;14269;47.358;0.724;2024-02-14T13:21:57;25.0;39.0
26641;DHT22;14269;47.358;0.724;2024-02-14T13:24:28;26.0;38.0
26641;DHT22;14269;47.358;0.724;2024-02-14T13:27:00;25.0;37.0
26641;DHT22;14269;47.358;0.724;2024-02-14T13:29:32;24.0;39.0
26641;DHT22;14269;47.358;0.724;2024-02-14T13:32:05;24.0;40.0
26641;DHT22;14269;47.358;0.724;2024-02-14T13:34:45;26.0;37.0
26641;DHT22;14269;47.358;0.724;2024-02-14T13:37:17;28.0;35.0
26641;DHT22;14269;47.358;0.724;2024-02-14T13:39:48;27.0;34.0
26641;DHT22;14269;47.358;0.724;2024-02-14T13:42:20;27.0;35.0
26641;DHT22;14269;47.358;0.724;2024-02-14T13:45:02;26.0;37.0
26641;DHT22;14269;47.358;0.724;2024-02-14T13:47:35;27.0;35.0
26641;DHT22;14269;47.358;0.724;2024-02-14T13:50:15;27.0;34.0
26641;DHT22;14269;47.358;0.724;2024-02-14T13:52:47;26.0;36.0
26641;DHT22;14269;47.358;0.724;2024-02-14T13:55:19;26.0;36.0
26641;DHT22;14269;47.358;0.724;2024-02-14T13:57:51;26.0;36.0
26641;DHT22;14269;47.358;0.724;2024-02-14T14:00:22;26.0;37.0
26641;DHT22;14269;47.358;0.724;2024-02-14T14:02:53;26.0;36.0
26641;DHT22;14269;47.358;0.724;2024-02-14T14:05:35;25.0;39.0
26641;DHT22;14269;47.358;0.724;2024-02-14T14:08:07;26.0;37.0
26641;DHT22;14269;47.358;0.724;2024-02-14T14:10:38;25.0;38.0
26641;DHT22;14269;47.358;0.724;2024-02-14T14:13:10;26.0;37.0
26641;DHT22;14269;47.358;0.724;2024-02-14T14:15:42;25.0;38.0
26641;DHT22;14269;47.358;0.724;2024-02-14T14:18:13;26.0;38.0
26641;DHT22;14269;47.358;0.724;2024-02-14T14:20:45;25.0;38.0
26641;DHT22;14269;47.358;0.724;2024-02-14T14:23:17;25.0;38.0
26641;DHT22;14269;47.358;0.724;2024-02-14T14:25:48;24.0;39.0
26641;DHT22;14269;47.358;0.724;2024-02-14T14:28:24;26.0;38.0
26641;DHT22;14269;47.358;0.724;2024-02-14T14:31:02;25.0;38.0
26641;DHT22;14269;47.358;0.724;2024-02-14T14:33:33;25.0;39.0
26641;DHT22;14269;47.358;0.724;2024-02-14T14:36:06;25.0;39.0
26641;DHT22;14269;47.358;0.724;2024-02-14T14:38:47;26.0;37.0
26641;DHT22;14269;47.358;0.724;2024-02-14T14:41:18;27.0;36.0
26641;DHT22;14269;47.358;0.724;2024-02-14T14:43:50;25.0;38.0
26641;DHT22;14269;47.358;0.724;2024-02-14T14:46:22;25.0;38.0
26641;DHT22;14269;47.358;0.724;2024-02-14T14:48:53;26.0;37.0
26641;DHT22;14269;47.358;0.724;2024-02-14T14:51:25;27.0;36.0
26641;DHT22;14269;47.358;0.724;2024-02-14T14:53:57;26.0;36.0
26641;DHT22;14269;47.358;0.724;2024-02-14T14:56:29;27.0;36.0
26641;DHT22;14269;47.358;0.724;2024-02-14T14:59:03;27.0;35.0
26641;DHT22;14269;47.358;0.724;2024-02-14T15:01:42;27.0;35.0
26641;DHT22;14269;47.358;0.724;2024-02-14T15:04:13;26.0;36.0
26641;DHT22;14269;47.358;0.724;2024-02-14T15:06:46;26.0;36.0
26641;DHT22;14269;47.358;0.724;2024-02-14T15:09:27;26.0;36.0
26641;DHT22;14269;47.358;0.724;2024-02-14T15:11:58;27.0;36.0
26641;DHT22;14269;47.358;0.724;2024-02-14T15:14:30;26.0;36.0
26641;DHT22;14269;47.358;0.724;2024-02-14T15:17:02;26.0;36.0
26641;DHT22;14269;47.358;0.724;2024-02-14T15:19:33;25.0;37.0
26641;DHT22;14269;47.358;0.724;2024-02-14T15:22:05;25.0;37.0
26641;DHT22;14269;47.358;0.724;2024-02-14T15:24:39;25.0;37.0
26641;DHT22;14269;47.358;0.724;2024-02-14T15:27:23;25.0;38.0
26641;DHT22;14269;47.358;0.724;2024-02-14T15:33:27;25.0;37.0
26641;DHT22;14269;47.358;0.724;2024-02-14T15:36:05;25.0;36.0
26641;DHT22;14269;47.358;0.724;2024-02-14T15:38:46;25.0;37.0
26641;DHT22;14269;47.358;0.724;2024-02-14T15:41:17;24.0;38.0
26641;DHT22;14269;47.358;0.724;2024-02-14T15:43:49;24.0;38.0
26641;DHT22;14269;47.358;0.724;2024-02-14T15:46:21;24.0;38.0
26641;DHT22;14269;47.358;0.724;2024-02-14T15:48:54;24.0;38.0
26641;DHT22;14269;47.358;0.724;2024-02-14T15:51:34;23.0;39.0
26641;DHT22;14269;47.358;0.724;2024-02-14T15:54:06;23.0;39.0
26641;DHT22;14269;47.358;0.724;2024-02-14T15:56:37;23.0;40.0
26641;DHT22;14269;47.358;0.724;2024-02-14T15:59:09;23.0;40.0
26641;DHT22;14269;47.358;0.724;2024-02-14T16:01:41;23.0;40.0
26641;DHT22;14269;47.358;0.724;2024-02-14T16:04:13;23.0;39.0
26641;DHT22;14269;47.358;0.724;2024-02-14T16:06:44;23.0;39.0
26641;DHT22;14269;47.358;0.724;2024-02-14T16:09:16;23.0;39.0
26641;DHT22;14269;47.358;0.724;2024-02-14T16:11:47;23.0;39.0
26641;DHT22;14269;47.358;0.724;2024-02-14T16:14:20;23.0;40.0
26641;DHT22;14269;47.358;0.724;2024-02-14T16:17:01;23.0;40.0
26641;DHT22;14269;47.358;0.724;2024-02-14T16:19:32;23.0;40.0
26641;DHT22;14269;47.358;0.724;2024-02-14T16:22:05;23.0;40.0
26641;DHT22;14269;47.358;0.724;2024-02-14T16:24:36;23.0;40.0
26641;DHT22;14269;47.358;0.724;2024-02-14T16:27:07;23.0;40.0
26641;DHT22;14269;47.358;0.724;2024-02-14T16:29:40;22.0;41.0
26641;DHT22;14269;47.358;0.724;2024-02-14T16:32:21;22.0;42.0
26641;DHT22;14269;47.358;0.724;2024-02-14T16:34:53;22.0;42.0
26641;DHT22;14269;47.358;0.724;2024-02-14T16:37:24;22.0;42.0
26641;DHT22;14269;47.358;0.724;2024-02-14T16:39:56;22.0;42.0
26641;DHT22;14269;47.358;0.724;2024-02-14T16:42:27;22.0;42.0
26641;DHT22;14269;47.358;0.724;2024-02-14T16:44:59;22.0;43.0
26641;DHT22;14269;47.358;0.724;2024-02-14T16:47:31;22.0;43.0
26641;DHT22;14269;47.358;0.724;2024-02-14T16:50:03;22.0;43.0
26641;DHT22;14269;47.358;0.724;2024-02-14T16:52:44;22.0;43.0